FRY weather

Eastern Slopes Regional Airport
Fryeburg, Maine, United States

Public forecast

Using degrees Fahrenheit for public forecast. Weather courtesy of forecast.io.

Current aviation weather report (METAR) for Eastern Slopes Regional Airport

Retrieved 2019/10/21 09:44 UTC (0 seconds ago):

KIZG 210944Z AUTO 00000KT 2SM BR FEW002 03/03 A3010 RMK AO2 T00330028

Closest aviation forecast (TAF) to Eastern Slopes Regional Airport

Closest forecast is Mount Washington Regional Airport, 34.2 nm (63.4 km) NW. Retrieved 2019/10/21 06:42 UTC (2 hours ago):

TAF KHIE 210539Z 2106/2206 00000KT 3/4SM BR BKN004 FM210800 00000KT 1/2SM FG VV001 FM211100 00000KT 1SM BR FEW025 FM211200 00000KT 6SM BR FEW045 FM211400 02003KT P6SM FEW150